createdAt,value
2023-03-25T00:01:18.161Z,9.95
2023-03-25T00:03:50.881Z,10.27
2023-03-25T00:06:19.059Z,10.08
2023-03-25T00:08:47.068Z,10.16
2023-03-25T00:11:16.558Z,9.87
2023-03-25T00:13:44.661Z,10.16
2023-03-25T00:16:12.668Z,10.07
2023-03-25T00:18:40.597Z,9.86
2023-03-25T00:21:11.839Z,9.72
2023-03-25T00:23:40.663Z,9.85
2023-03-25T00:26:09.288Z,9.87
2023-03-25T00:28:40.074Z,9.58
2023-03-25T00:31:10.366Z,9.84
2023-03-25T00:33:43.948Z,9.84
2023-03-25T00:36:14.625Z,9.90
2023-03-25T00:38:50.788Z,9.82
2023-03-25T00:41:22.991Z,9.38
2023-03-25T00:43:56.873Z,9.47
2023-03-25T00:46:27.556Z,9.61
2023-03-25T00:48:57.204Z,9.33
2023-03-25T00:51:27.051Z,9.49
2023-03-25T00:53:56.950Z,8.94
2023-03-25T00:56:25.660Z,9.32
2023-03-25T00:58:56.576Z,9.22
2023-03-25T01:01:27.269Z,8.95
2023-03-25T01:03:58.775Z,9.24
2023-03-25T01:06:29.948Z,9.13
2023-03-25T01:08:58.804Z,9.16
2023-03-25T01:11:29.511Z,9.11
2023-03-25T01:14:00.393Z,9.06
2023-03-25T01:16:28.782Z,9.07
2023-03-25T01:18:57.275Z,9.02
2023-03-25T01:21:25.451Z,9.03
2023-03-25T01:23:53.545Z,9.01
2023-03-25T01:26:21.772Z,9.00
2023-03-25T01:28:49.731Z,8.93
2023-03-25T01:31:19.010Z,8.85
2023-03-25T01:33:46.936Z,8.46
2023-03-25T01:36:14.943Z,8.67
2023-03-25T01:38:43.508Z,8.77
2023-03-25T01:41:12.606Z,8.77
2023-03-25T01:43:40.522Z,8.59
2023-03-25T01:46:15.129Z,8.67
2023-03-25T01:48:46.526Z,8.49
2023-03-25T01:51:18.319Z,8.43
2023-03-25T01:53:46.372Z,8.47
2023-03-25T01:56:19.608Z,8.50
2023-03-25T01:58:51.234Z,8.38
2023-03-25T02:01:34.573Z,8.37
2023-03-25T02:04:10.031Z,8.22
2023-03-25T02:06:43.056Z,8.33
2023-03-25T02:09:11.993Z,7.91
2023-03-25T02:11:40.488Z,8.26
2023-03-25T02:14:11.063Z,8.15
2023-03-25T02:16:50.369Z,8.05
2023-03-25T02:19:53.551Z,7.98
2023-03-25T02:22:51.193Z,8.05
2023-03-25T02:26:03.442Z,7.87
2023-03-25T02:28:40.962Z,8.13
2023-03-25T02:31:41.221Z,8.01
2023-03-25T02:34:34.423Z,8.05
2023-03-25T02:37:35.390Z,8.04
2023-03-25T02:40:08.050Z,7.96
2023-03-25T02:42:41.296Z,7.83
2023-03-25T02:45:15.655Z,7.67
2023-03-25T02:47:48.545Z,7.78
2023-03-25T02:50:22.238Z,7.79
2023-03-25T02:52:56.598Z,7.63
2023-03-25T02:55:30.569Z,7.72
2023-03-25T02:58:01.755Z,7.58
2023-03-25T03:00:30.930Z,7.43
2023-03-25T03:03:01.276Z,7.61
2023-03-25T03:05:31.683Z,7.57
2023-03-25T03:08:19.130Z,6.41
2023-03-25T03:10:54.102Z,7.67
2023-03-25T03:13:31.679Z,7.30
2023-03-25T03:16:08.450Z,7.50
2023-03-25T03:18:46.225Z,6.55
2023-03-25T03:21:24.285Z,7.10
2023-03-25T03:23:57.641Z,7.38
2023-03-25T03:26:32.485Z,6.81
2023-03-25T03:29:11.564Z,7.28
2023-03-25T03:31:48.637Z,7.28
2023-03-25T03:34:36.656Z,6.84
2023-03-25T03:37:05.852Z,7.20
2023-03-25T03:39:36.584Z,7.18
2023-03-25T03:42:09.201Z,7.15
2023-03-25T03:44:42.564Z,6.64
2023-03-25T03:47:14.083Z,7.06
2023-03-25T03:49:52.069Z,6.98
2023-03-25T03:52:25.635Z,7.14
2023-03-25T03:55:00.462Z,7.16
2023-03-25T03:57:38.625Z,7.11
2023-03-25T04:02:39.987Z,7.14
2023-03-25T04:05:11.525Z,7.07
2023-03-25T04:07:43.766Z,7.18
2023-03-25T04:10:15.869Z,7.38
2023-03-25T04:12:49.344Z,7.40
2023-03-25T04:15:18.264Z,7.43
2023-03-25T04:17:50.464Z,7.48
2023-03-25T04:20:25.068Z,7.56
2023-03-25T04:22:53.773Z,7.50
2023-03-25T04:25:25.251Z,7.58
2023-03-25T04:27:59.423Z,7.69
2023-03-25T04:30:28.550Z,7.93
2023-03-25T04:32:57.153Z,8.05
2023-03-25T04:35:25.993Z,8.13
2023-03-25T04:37:57.438Z,8.11
2023-03-25T04:40:26.844Z,8.45
2023-03-25T04:42:56.933Z,8.67
2023-03-25T04:45:25.517Z,8.86
2023-03-25T04:47:55.493Z,8.90
2023-03-25T04:50:27.262Z,9.10
2023-03-25T04:52:57.588Z,8.76
2023-03-25T04:55:26.841Z,9.38
2023-03-25T04:57:56.299Z,8.10
2023-03-25T05:00:26.185Z,9.77
2023-03-25T05:02:56.166Z,10.07
2023-03-25T05:05:26.404Z,10.41
2023-03-25T05:07:58.243Z,10.48
2023-03-25T05:10:29.758Z,10.69
2023-03-25T05:13:01.522Z,10.96
2023-03-25T05:15:30.664Z,11.09
2023-03-25T05:17:58.607Z,10.87
2023-03-25T05:20:26.561Z,11.41
2023-03-25T05:22:57.635Z,11.40
2023-03-25T05:25:26.061Z,11.25
2023-03-25T05:27:54.665Z,11.74
2023-03-25T05:30:24.605Z,12.06
2023-03-25T05:32:56.235Z,12.52
2023-03-25T05:35:26.781Z,12.99
2023-03-25T05:37:55.963Z,12.78
2023-03-25T05:40:24.138Z,12.78
2023-03-25T05:42:54.934Z,12.91
2023-03-25T05:45:24.530Z,13.03
2023-03-25T05:47:52.434Z,12.94
2023-03-25T05:50:21.678Z,13.25
2023-03-25T05:52:51.969Z,13.18
2023-03-25T05:55:22.647Z,13.53
2023-03-25T05:57:50.828Z,13.96
2023-03-25T06:00:23.887Z,14.04
2023-03-25T06:02:53.819Z,13.65
2023-03-25T06:05:23.856Z,13.86
2023-03-25T06:07:52.174Z,14.05
2023-03-25T06:10:20.942Z,14.17
2023-03-25T06:12:50.072Z,14.17
2023-03-25T06:15:21.270Z,14.19
2023-03-25T06:17:49.163Z,14.40
2023-03-25T06:20:20.148Z,14.50
2023-03-25T06:22:48.108Z,15.05
2023-03-25T06:25:19.556Z,14.90
2023-03-25T06:27:48.696Z,14.46
2023-03-25T06:30:18.803Z,14.76
2023-03-25T06:32:50.694Z,15.01
2023-03-25T06:35:21.457Z,14.96
2023-03-25T06:37:50.462Z,15.47
2023-03-25T06:40:18.533Z,15.82
2023-03-25T06:42:46.476Z,15.45
2023-03-25T06:45:14.395Z,15.83
2023-03-25T06:47:42.307Z,15.40
2023-03-25T06:50:10.803Z,15.09
2023-03-25T06:52:40.133Z,15.45
2023-03-25T06:55:09.088Z,14.55
2023-03-25T06:57:37.858Z,14.01
2023-03-25T07:00:09.965Z,14.83
2023-03-25T07:02:37.927Z,15.46
2023-03-25T07:05:06.530Z,15.36
2023-03-25T07:07:34.433Z,15.40
2023-03-25T07:10:03.724Z,15.16
2023-03-25T07:12:31.700Z,15.29
2023-03-25T07:14:59.570Z,16.13
2023-03-25T07:17:28.174Z,15.64
2023-03-25T07:19:56.030Z,16.03
2023-03-25T07:22:23.971Z,16.71
2023-03-25T07:24:52.326Z,16.54
2023-03-25T07:27:21.644Z,16.35
2023-03-25T07:29:49.606Z,16.51
2023-03-25T07:32:17.510Z,17.12
2023-03-25T07:34:45.594Z,16.96
2023-03-25T07:37:13.676Z,17.09
2023-03-25T07:39:41.914Z,17.34
2023-03-25T07:42:09.935Z,17.64
2023-03-25T07:44:39.232Z,17.60
2023-03-25T07:47:07.084Z,17.24
2023-03-25T07:49:34.955Z,17.55
2023-03-25T07:52:02.890Z,18.17
2023-03-25T07:54:30.762Z,18.53
2023-03-25T07:56:58.927Z,18.53
2023-03-25T07:59:29.288Z,18.66
2023-03-25T08:01:59.036Z,19.07
2023-03-25T08:04:28.318Z,19.17
2023-03-25T08:06:56.177Z,18.95
2023-03-25T08:09:24.717Z,18.61
2023-03-25T08:11:52.591Z,19.23
2023-03-25T08:14:20.499Z,19.72
2023-03-25T08:16:48.533Z,19.38
2023-03-25T08:19:17.912Z,18.83
2023-03-25T08:21:45.981Z,20.30
2023-03-25T08:24:13.963Z,20.13
2023-03-25T08:26:42.397Z,20.58
2023-03-25T08:29:11.538Z,20.69
2023-03-25T08:31:40.641Z,20.85
2023-03-25T08:34:09.022Z,20.67
2023-03-25T08:36:39.480Z,20.20
2023-03-25T08:39:11.925Z,19.29
2023-03-25T08:41:40.767Z,19.14
2023-03-25T08:44:08.986Z,20.04
2023-03-25T08:46:37.498Z,20.18
2023-03-25T08:49:06.518Z,21.09
2023-03-25T08:51:34.630Z,21.35
2023-03-25T08:54:03.943Z,21.92
2023-03-25T08:56:31.980Z,22.00
2023-03-25T08:58:59.916Z,21.44
2023-03-25T09:01:28.061Z,20.81
2023-03-25T09:03:57.838Z,19.96
2023-03-25T09:06:26.237Z,20.87
2023-03-25T09:08:56.180Z,20.76
2023-03-25T09:11:36.142Z,20.60
2023-03-25T09:14:05.757Z,20.90
2023-03-25T09:16:34.478Z,21.99
2023-03-25T09:19:02.616Z,22.43
2023-03-25T09:21:30.916Z,22.05
2023-03-25T09:23:58.869Z,22.55
2023-03-25T09:26:28.217Z,22.37
2023-03-25T09:28:56.618Z,23.37
2023-03-25T09:31:25.334Z,24.08
2023-03-25T09:33:53.413Z,23.81
2023-03-25T09:36:21.370Z,23.25
2023-03-25T09:38:49.337Z,23.12
2023-03-25T09:41:34.787Z,23.32
2023-03-25T09:44:14.677Z,23.87
2023-03-25T09:46:45.792Z,23.95
2023-03-25T09:49:17.878Z,23.21
2023-03-25T09:51:47.449Z,22.99
2023-03-25T09:54:21.720Z,22.76
2023-03-25T09:56:52.810Z,22.67
2023-03-25T09:59:23.325Z,22.69
2023-03-25T10:01:59.497Z,22.88
2023-03-25T10:04:51.546Z,22.48
2023-03-25T10:07:33.895Z,22.47
2023-03-25T10:10:07.841Z,22.66
2023-03-25T10:12:46.343Z,22.57
2023-03-25T10:15:31.250Z,22.56
2023-03-25T10:18:19.172Z,22.49
2023-03-25T10:20:55.844Z,22.46
2023-03-25T10:23:30.460Z,22.46
2023-03-25T10:26:02.774Z,23.06
2023-03-25T10:28:37.718Z,23.91
2023-03-25T10:31:08.165Z,24.64
2023-03-25T10:33:38.626Z,25.09
2023-03-25T10:36:13.707Z,24.28
2023-03-25T10:38:43.798Z,24.37
2023-03-25T10:41:20.913Z,24.68
2023-03-25T10:43:52.249Z,25.85
2023-03-25T10:46:28.491Z,26.28
2023-03-25T10:48:56.991Z,25.42
2023-03-25T10:51:29.434Z,24.49
2023-03-25T10:53:57.656Z,24.18
2023-03-25T10:56:34.359Z,23.50
2023-03-25T10:59:12.408Z,23.74
2023-03-25T11:01:42.751Z,23.95
2023-03-25T11:04:14.685Z,24.74
2023-03-25T11:06:46.870Z,25.22
2023-03-25T11:09:24.457Z,24.94
2023-03-25T11:11:54.130Z,24.92
2023-03-25T11:14:27.498Z,24.72
2023-03-25T11:16:58.231Z,25.36
2023-03-25T11:19:29.934Z,25.19
2023-03-25T11:22:01.860Z,25.32
2023-03-25T11:24:33.581Z,25.52
2023-03-25T11:27:02.895Z,25.42
2023-03-25T11:29:33.216Z,25.28
2023-03-25T11:32:08.370Z,24.39
2023-03-25T11:34:42.393Z,24.66
2023-03-25T11:37:18.230Z,26.01
2023-03-25T11:39:55.305Z,26.28
2023-03-25T11:42:34.161Z,26.30
2023-03-25T11:45:04.075Z,25.89
2023-03-25T11:47:34.502Z,25.28
2023-03-25T11:50:03.316Z,25.08
2023-03-25T11:52:40.566Z,25.60
2023-03-25T11:55:17.689Z,25.80
2023-03-25T11:57:47.847Z,25.65
2023-03-25T12:00:29.532Z,26.73
2023-03-25T12:03:02.469Z,25.83
2023-03-25T12:05:30.968Z,25.36
2023-03-25T12:08:06.363Z,25.35
2023-03-25T12:10:47.933Z,24.14
2023-03-25T12:13:23.162Z,23.80
2023-03-25T12:16:01.578Z,23.79
2023-03-25T12:18:48.413Z,23.19
2023-03-25T12:21:28.736Z,22.53
2023-03-25T12:27:12.201Z,21.96
2023-03-25T12:29:50.306Z,21.79
2023-03-25T12:32:38.467Z,21.57
2023-03-25T12:35:27.706Z,21.78
2023-03-25T12:38:11.212Z,21.94
2023-03-25T12:40:56.874Z,22.13
2023-03-25T12:43:33.445Z,21.93
2023-03-25T12:46:14.433Z,21.88
2023-03-25T12:49:05.252Z,21.93
2023-03-25T12:51:44.532Z,21.99
2023-03-25T12:54:30.015Z,22.29
2023-03-25T12:57:05.519Z,22.16
2023-03-25T12:59:47.093Z,22.02
2023-03-25T13:02:35.702Z,21.78
2023-03-25T13:05:19.128Z,20.27
2023-03-25T13:07:50.937Z,21.23
2023-03-25T13:10:21.363Z,21.28
2023-03-25T13:12:52.121Z,21.09
2023-03-25T13:15:27.392Z,20.99
2023-03-25T13:17:59.804Z,20.92
2023-03-25T13:20:32.763Z,20.99
2023-03-25T13:23:03.686Z,20.99
2023-03-25T13:25:37.540Z,20.74
2023-03-25T13:28:11.623Z,20.70
2023-03-25T13:30:45.952Z,20.71
2023-03-25T13:33:17.945Z,20.56
2023-03-25T13:35:51.641Z,20.49
2023-03-25T13:38:27.260Z,20.43
2023-03-25T13:41:08.015Z,20.27
2023-03-25T13:43:41.346Z,20.15
2023-03-25T13:46:11.970Z,19.73
2023-03-25T13:48:46.798Z,19.62
2023-03-25T13:51:16.164Z,19.24
2023-03-25T13:53:49.914Z,19.30
2023-03-25T13:56:47.042Z,19.12
2023-03-25T13:59:42.210Z,18.74
2023-03-25T14:02:33.548Z,18.80
2023-03-25T14:05:31.516Z,18.68
2023-03-25T14:08:31.335Z,18.36
2023-03-25T14:11:15.574Z,18.53
2023-03-25T14:13:48.363Z,18.30
2023-03-25T14:16:18.173Z,18.23
2023-03-25T14:18:50.804Z,18.21
2023-03-25T14:21:31.865Z,18.06
2023-03-25T14:24:14.649Z,17.98
2023-03-25T14:26:47.236Z,17.90
2023-03-25T14:29:25.804Z,17.95
2023-03-25T14:32:06.902Z,17.64
2023-03-25T14:34:39.385Z,16.55
2023-03-25T14:37:28.887Z,17.21
2023-03-25T14:40:00.857Z,16.96
2023-03-25T14:42:43.417Z,16.73
2023-03-25T14:46:02.258Z,16.37
2023-03-25T14:48:34.927Z,15.68
2023-03-25T14:51:23.358Z,15.29
2023-03-25T14:53:54.234Z,14.98
2023-03-25T14:56:27.539Z,14.79
2023-03-25T14:58:58.737Z,14.82
2023-03-25T15:01:32.816Z,14.69
2023-03-25T15:04:18.200Z,15.28
2023-03-25T15:06:49.222Z,15.44
2023-03-25T15:09:20.325Z,15.66
2023-03-25T15:11:59.798Z,15.68
2023-03-25T15:14:31.632Z,15.71
2023-03-25T15:17:03.507Z,15.68
2023-03-25T15:19:31.383Z,15.82
2023-03-25T15:22:24.120Z,15.79
2023-03-25T15:25:00.914Z,15.66
2023-03-25T15:28:09.638Z,15.97
2023-03-25T15:30:59.005Z,15.87
2023-03-25T15:33:46.089Z,15.92
2023-03-25T15:36:36.202Z,16.07
2023-03-25T15:39:18.950Z,16.01
2023-03-25T15:42:13.553Z,15.81
2023-03-25T15:45:10.290Z,15.77
2023-03-25T15:47:54.179Z,15.81
2023-03-25T15:50:31.708Z,15.60
2023-03-25T15:53:18.458Z,15.86
2023-03-25T15:55:51.263Z,16.01
2023-03-25T15:58:27.025Z,15.95
2023-03-25T16:01:04.061Z,15.91
2023-03-25T16:03:34.961Z,15.81
2023-03-25T16:06:07.504Z,15.77
2023-03-25T16:08:41.149Z,15.71
2023-03-25T16:11:17.051Z,15.66
2023-03-25T16:13:45.337Z,15.76
2023-03-25T16:16:17.925Z,15.72
2023-03-25T16:18:48.471Z,15.72
2023-03-25T16:21:16.546Z,15.75
2023-03-25T16:23:44.512Z,15.68
2023-03-25T16:26:18.390Z,15.66
2023-03-25T16:28:49.246Z,15.73
2023-03-25T16:31:34.974Z,15.59
2023-03-25T16:34:04.174Z,15.70
2023-03-25T16:36:34.849Z,15.70
2023-03-25T16:39:02.803Z,15.69
2023-03-25T16:41:32.497Z,15.69
2023-03-25T16:44:03.058Z,15.64
2023-03-25T16:46:33.118Z,14.66
2023-03-25T16:49:01.631Z,15.31
2023-03-25T16:51:32.219Z,15.48
2023-03-25T16:54:00.552Z,15.52
2023-03-25T16:56:31.060Z,15.18
2023-03-25T16:59:03.909Z,15.43
2023-03-25T17:01:40.469Z,15.29
2023-03-25T17:04:18.840Z,15.29
2023-03-25T17:06:52.941Z,15.24
2023-03-25T17:09:22.939Z,15.12
2023-03-25T17:11:56.855Z,15.01
2023-03-25T17:14:29.883Z,15.10
2023-03-25T17:17:04.947Z,15.04
2023-03-25T17:19:33.558Z,14.95
2023-03-25T17:22:16.533Z,14.96
2023-03-25T17:24:50.811Z,14.84
2023-03-25T17:27:24.957Z,14.64
2023-03-25T17:29:55.033Z,13.92
2023-03-25T17:32:24.530Z,14.50
2023-03-25T17:35:06.632Z,14.49
2023-03-25T17:37:34.972Z,14.38
2023-03-25T17:40:11.536Z,14.26
2023-03-25T17:42:41.627Z,14.14
2023-03-25T17:45:15.622Z,13.75
2023-03-25T17:47:44.976Z,14.01
2023-03-25T17:50:16.824Z,13.99
2023-03-25T17:52:44.983Z,14.01
2023-03-25T17:55:13.986Z,14.01
2023-03-25T17:57:42.489Z,13.19
2023-03-25T18:00:17.263Z,14.00
2023-03-25T18:02:46.784Z,14.00
2023-03-25T18:05:15.620Z,14.03
2023-03-25T18:07:43.652Z,13.98
2023-03-25T18:10:19.112Z,13.88
2023-03-25T18:12:47.492Z,13.85
2023-03-25T18:15:15.556Z,13.84
2023-03-25T18:17:43.880Z,13.80
2023-03-25T18:20:17.110Z,13.77
2023-03-25T18:22:48.385Z,13.67
2023-03-25T18:25:16.388Z,13.56
2023-03-25T18:27:45.869Z,13.57
2023-03-25T18:30:31.697Z,13.50
2023-03-25T18:33:00.766Z,13.42
2023-03-25T18:35:30.973Z,13.35
2023-03-25T18:38:00.233Z,13.32
2023-03-25T18:40:49.741Z,13.24
2023-03-25T18:43:39.828Z,13.26
2023-03-25T18:46:16.220Z,13.13
2023-03-25T18:48:49.369Z,13.22
2023-03-25T18:51:30.314Z,13.20
2023-03-25T18:54:03.673Z,13.08
2023-03-25T18:56:32.548Z,12.99
2023-03-25T18:59:02.651Z,12.96
2023-03-25T19:01:32.159Z,12.67
2023-03-25T19:04:06.320Z,12.85
2023-03-25T19:06:50.819Z,12.83
2023-03-25T19:09:32.461Z,12.36
2023-03-25T19:12:05.279Z,12.72
2023-03-25T19:14:56.294Z,12.68
2023-03-25T19:17:38.883Z,12.68
2023-03-25T19:20:12.627Z,12.64
2023-03-25T19:22:51.497Z,12.64
2023-03-25T19:25:24.087Z,12.66
2023-03-25T19:28:06.972Z,12.64
2023-03-25T19:33:27.070Z,12.43
2023-03-25T19:36:04.516Z,12.44
2023-03-25T19:38:39.461Z,12.00
2023-03-25T19:41:08.905Z,11.94
2023-03-25T19:43:43.250Z,12.05
2023-03-25T19:46:16.992Z,12.10
2023-03-25T19:48:49.593Z,12.08
2023-03-25T19:51:25.894Z,12.07
2023-03-25T19:53:55.315Z,12.04
2023-03-25T19:59:53.513Z,12.08
2023-03-25T20:05:40.707Z,12.23
2023-03-25T20:08:37.806Z,12.43
2023-03-25T20:11:57.004Z,12.48
2023-03-25T20:14:43.428Z,12.64
2023-03-25T20:23:50.548Z,12.72
2023-03-25T20:26:29.034Z,12.81
2023-03-25T20:29:16.777Z,12.74
2023-03-25T20:32:02.734Z,12.52
2023-03-25T20:34:40.071Z,12.71
2023-03-25T20:40:18.469Z,12.76
2023-03-25T20:43:07.763Z,12.24
2023-03-25T20:45:51.966Z,12.69
2023-03-25T20:48:32.494Z,12.74
2023-03-25T20:51:16.603Z,12.83
2023-03-25T20:53:51.699Z,12.56
2023-03-25T20:56:26.973Z,12.59
2023-03-25T20:58:58.778Z,12.49
2023-03-25T21:01:37.050Z,12.17
2023-03-25T21:04:07.363Z,12.04
2023-03-25T21:06:35.762Z,10.97
2023-03-25T21:09:25.818Z,11.99
2023-03-25T21:12:43.744Z,12.02
2023-03-25T21:15:49.867Z,12.04
2023-03-25T21:18:33.340Z,12.07
2023-03-25T21:21:04.060Z,11.62
2023-03-25T21:23:44.657Z,12.23
2023-03-25T21:26:17.718Z,12.06
2023-03-25T21:28:51.583Z,12.06
2023-03-25T21:31:53.802Z,12.05
2023-03-25T21:34:38.270Z,12.07
2023-03-25T21:37:21.746Z,12.16
2023-03-25T21:39:53.048Z,11.99
2023-03-25T21:42:22.779Z,12.31
2023-03-25T21:44:56.880Z,12.39
2023-03-25T21:47:34.480Z,12.51
2023-03-25T21:50:09.937Z,12.58
2023-03-25T21:52:38.470Z,12.62
2023-03-25T21:55:11.434Z,12.66
2023-03-25T21:57:45.296Z,12.53
2023-03-25T22:00:17.304Z,11.92
2023-03-25T22:06:02.027Z,12.64
2023-03-25T22:08:31.487Z,11.79
2023-03-25T22:11:04.103Z,12.63
2023-03-25T22:13:34.527Z,12.62
2023-03-25T22:16:07.367Z,12.62
2023-03-25T22:18:37.816Z,12.60
2023-03-25T22:21:17.720Z,12.66
2023-03-25T22:23:52.668Z,12.69
2023-03-25T22:26:22.280Z,12.70
2023-03-25T22:28:57.856Z,12.68
2023-03-25T22:31:32.277Z,12.58
2023-03-25T22:34:11.149Z,12.66
2023-03-25T22:36:53.552Z,12.72
2023-03-25T22:39:28.380Z,12.77
2023-03-25T22:42:14.459Z,12.74
2023-03-25T22:44:56.664Z,12.70
2023-03-25T22:47:35.493Z,12.70
2023-03-25T22:50:16.244Z,12.81
2023-03-25T22:52:49.485Z,12.84
2023-03-25T22:55:17.556Z,12.89
2023-03-25T22:57:48.799Z,12.83
2023-03-25T23:00:19.035Z,12.87
2023-03-25T23:02:49.581Z,12.88
2023-03-25T23:05:23.918Z,12.85
2023-03-25T23:08:03.170Z,12.77
2023-03-25T23:10:31.168Z,12.54
2023-03-25T23:12:59.520Z,12.31
2023-03-25T23:15:30.251Z,12.10
2023-03-25T23:17:58.654Z,11.93
2023-03-25T23:20:29.423Z,11.83
2023-03-25T23:22:58.430Z,11.66
2023-03-25T23:25:26.678Z,11.61
2023-03-25T23:27:58.043Z,11.46
2023-03-25T23:30:26.038Z,11.43
2023-03-25T23:32:53.971Z,11.34
2023-03-25T23:35:22.081Z,11.31
2023-03-25T23:37:53.499Z,11.28
2023-03-25T23:40:22.478Z,11.28
2023-03-25T23:42:51.684Z,11.16
2023-03-25T23:45:20.125Z,11.00
2023-03-25T23:47:50.302Z,10.95
2023-03-25T23:50:19.606Z,11.01
2023-03-25T23:52:48.792Z,11.04
2023-03-25T23:58:41.741Z,10.13
